SBCY/CGB METAR and TAF weather

Enter ICAO airport designator
Station Type Date Time Source
SBCY METAR 2021/09/24 00:00 UTC NOAA

SBCY 240000Z 17007KT CAVOK 34/16 Q1010


Station Type Date Time Source
SBCY Decoded METAR 2021/09/24 00:00 UTC NOAA

Cuiaba Aeroporto , Brazil (SBCY) 15-39S 056-06W 182M
Sep 23, 2021 - 08:00 PM EDT / 2021.09.24 0000 UTC
Wind: from the S (170 degrees) at 8 MPH (7 KT):0
Visibility: greater than 7 mile(s):0
Temperature: 93 F (34 C)
Dew Point: 60 F (16 C)
Relative Humidity: 34%
Pressure (altimeter): 29.83 in. Hg (1010 hPa)
ob: SBCY 240000Z 17007KT CAVOK 34/16 Q1010
cycle: 0

Station Type Date Time Source
SBCY TAF 2021/09/24 00:00 UTC NOAA

TAF SBCY 232129Z 2400/2424 19007KT 7000 NSC TN27/2410Z TX39/2419Z PROB40 2406/2411 5000 FU
RMK PHC

Example: see airport list